Terminal Aerodrome Forecast
Issued by NWS

Home | Current Version | Previous Version | Text Only | Print | Product List | Glossary On
Versions: 1 2 3 4 5 6 7 8 9 10 11 12 13 14 15 16 17 18 19 20 21 22 23 24 25 26 27 28 29 30 31
000
FTUS46 KPDT 012000 AAA
TAFBDN
TAF AMD
KBDN 012040Z 0121/0218 26010KT P6SM VCSH OVC070
     FM020500 20004KT P6SM SCT020
     FM021000 20005KT 6SM BR FEW002 SCT015
     FM021500 21011KT 2SM -RA BR BKN010 OVC020=

USA.gov is the U.S. government's official web portal to all federal, state and local government web resources and services.